Johannesburg, South Africa
Current Conditions -  °F | °C
As of 6:30 PM on Thursday 29 Jan 2015 (Local Time) from FAOR Reporting Station
Clear Clear  
Wind Chill: 68°   Ceiling: Unl
Heat Index: 68°   Visibility: 6mi
Dew Point: 59°   Wind: 8mph
Humidity: 73%   Direction: 40°NE
Pressure: 30.18"   Gusts: NA
Location:  26.19°S, 28.04°E
Report Text: FAOR 291630Z 04007KT CAVOK 20/15 Q1022 NOSIG
Loading
Personal Weather Stations






























Interactive Weather Map New forecast layout! Learn more

10-Day Weather Forecast

Advertisements
Track Severe Weather on mobile